createdAt,value
2019-01-16T00:00:43.733Z,5.26
2019-01-16T00:03:39.000Z,5.26
2019-01-16T00:06:26.994Z,5.29
2019-01-16T00:09:33.282Z,5.20
2019-01-16T00:12:18.388Z,5.33
2019-01-16T00:14:55.823Z,5.20
2019-01-16T00:17:56.061Z,5.17
2019-01-16T00:20:46.877Z,5.13
2019-01-16T00:23:32.166Z,5.13
2019-01-16T00:26:21.714Z,5.14
2019-01-16T00:29:24.938Z,5.14
2019-01-16T00:32:11.829Z,5.17
2019-01-16T00:34:56.915Z,5.10
2019-01-16T00:37:43.813Z,5.10
2019-01-16T00:40:31.147Z,5.28
2019-01-16T00:43:10.391Z,5.18
2019-01-16T00:46:06.529Z,5.19
2019-01-16T00:49:12.780Z,5.09
2019-01-16T00:52:04.771Z,5.16
2019-01-16T00:55:10.915Z,5.11
2019-01-16T00:57:58.967Z,5.15
2019-01-16T01:00:50.969Z,5.31
2019-01-16T01:03:41.787Z,5.32
2019-01-16T01:06:34.807Z,5.17
2019-01-16T01:09:23.020Z,5.25
2019-01-16T01:12:20.015Z,5.25
2019-01-16T01:15:13.813Z,5.21
2019-01-16T01:17:54.431Z,5.06
2019-01-16T01:20:48.674Z,4.94
2019-01-16T01:23:33.499Z,4.97
2019-01-16T01:26:20.310Z,5.05
2019-01-16T01:29:10.524Z,5.25
2019-01-16T01:31:49.642Z,5.13
2019-01-16T01:34:36.614Z,5.14
2019-01-16T01:37:41.586Z,5.06
2019-01-16T01:40:30.159Z,5.10
2019-01-16T01:43:24.066Z,5.10
2019-01-16T01:46:15.145Z,5.04
2019-01-16T01:49:02.038Z,5.07
2019-01-16T01:51:56.102Z,4.98
2019-01-16T01:54:42.683Z,5.13
2019-01-16T01:57:20.820Z,5.10
2019-01-16T02:00:16.333Z,5.08
2019-01-16T02:03:04.413Z,4.99
2019-01-16T02:05:50.965Z,5.18
2019-01-16T02:08:33.983Z,5.10
2019-01-16T02:11:24.748Z,5.07
2019-01-16T02:14:07.173Z,5.04
2019-01-16T02:16:54.431Z,5.03
2019-01-16T02:19:41.278Z,5.04
2019-01-16T02:22:28.131Z,5.24
2019-01-16T02:25:09.620Z,5.12
2019-01-16T02:28:03.444Z,5.15
2019-01-16T02:30:51.371Z,5.01
2019-01-16T02:33:57.572Z,4.96
2019-01-16T02:36:48.691Z,5.09
2019-01-16T02:39:36.654Z,4.81
2019-01-16T02:42:23.659Z,4.88
2019-01-16T02:45:17.748Z,4.85
2019-01-16T02:48:08.786Z,5.17
2019-01-16T02:50:56.713Z,4.82
2019-01-16T02:53:50.611Z,4.80
2019-01-16T02:56:31.969Z,4.86
2019-01-16T02:59:25.796Z,4.86
2019-01-16T03:02:16.878Z,4.80
2019-01-16T03:05:20.221Z,4.86
2019-01-16T03:08:14.414Z,4.82
2019-01-16T03:10:53.593Z,4.93
2019-01-16T03:13:35.147Z,4.85
2019-01-16T03:16:21.860Z,4.82
2019-01-16T03:19:22.356Z,4.79
2019-01-16T03:22:16.115Z,4.73
2019-01-16T03:25:13.268Z,4.88
2019-01-16T03:28:10.294Z,4.63
2019-01-16T03:31:07.090Z,4.89
2019-01-16T03:33:47.387Z,4.61
2019-01-16T03:36:27.001Z,4.75
2019-01-16T03:39:15.313Z,4.75
2019-01-16T03:42:15.387Z,4.73
2019-01-16T03:44:55.222Z,4.71
2019-01-16T03:47:43.072Z,4.74
2019-01-16T03:50:29.688Z,4.69
2019-01-16T03:53:17.672Z,4.75
2019-01-16T03:56:06.273Z,4.78
2019-01-16T03:58:53.142Z,4.76
2019-01-16T04:01:40.875Z,4.86
2019-01-16T04:04:18.614Z,4.69
2019-01-16T04:07:06.618Z,4.95
2019-01-16T04:09:57.743Z,4.87
2019-01-16T04:12:45.670Z,4.71
2019-01-16T04:15:48.826Z,4.73
2019-01-16T04:18:35.382Z,4.68
2019-01-16T04:21:20.433Z,4.67
2019-01-16T04:24:04.802Z,4.65
2019-01-16T04:26:51.509Z,4.83
2019-01-16T04:29:38.542Z,4.77
2019-01-16T04:32:41.822Z,4.76
2019-01-16T04:35:19.128Z,4.72
2019-01-16T04:38:04.539Z,4.76
2019-01-16T04:41:00.009Z,4.71
2019-01-16T04:43:47.166Z,4.84
2019-01-16T04:46:44.323Z,4.83
2019-01-16T04:49:41.054Z,4.70
2019-01-16T04:52:29.219Z,4.73
2019-01-16T04:55:28.106Z,4.81
2019-01-16T04:58:19.210Z,4.73
2019-01-16T05:01:02.567Z,4.70
2019-01-16T05:03:44.359Z,4.72
2019-01-16T05:06:32.793Z,4.75
2019-01-16T05:09:33.635Z,4.81
2019-01-16T05:12:24.746Z,4.76
2019-01-16T05:15:08.480Z,4.92
2019-01-16T05:18:05.717Z,4.65
2019-01-16T05:20:52.158Z,4.63
2019-01-16T05:23:43.403Z,4.53
2019-01-16T05:26:31.577Z,4.62
2019-01-16T05:29:18.897Z,4.58
2019-01-16T05:32:19.620Z,4.74
2019-01-16T05:35:10.851Z,4.52
2019-01-16T05:37:59.262Z,4.64
2019-01-16T05:40:59.463Z,4.68
2019-01-16T05:43:47.787Z,4.75
2019-01-16T05:46:48.021Z,4.74
2019-01-16T05:49:29.532Z,4.72
2019-01-16T05:52:16.223Z,4.78
2019-01-16T05:55:06.423Z,4.65
2019-01-16T05:57:53.113Z,4.68
2019-01-16T06:00:41.111Z,4.81
2019-01-16T06:03:33.071Z,4.50
2019-01-16T06:06:21.065Z,4.67
2019-01-16T06:09:09.084Z,4.56
2019-01-16T06:12:12.315Z,4.69
2019-01-16T06:14:54.888Z,4.59
2019-01-16T06:17:30.247Z,4.56
2019-01-16T06:20:18.080Z,4.62
2019-01-16T06:23:24.240Z,4.73
2019-01-16T06:26:09.078Z,4.71
2019-01-16T06:29:07.950Z,4.56
2019-01-16T06:31:56.936Z,4.54
2019-01-16T06:34:53.937Z,4.48
2019-01-16T06:37:40.938Z,4.73
2019-01-16T06:40:28.108Z,4.53
2019-01-16T06:43:26.309Z,4.49
2019-01-16T06:46:08.689Z,4.51
2019-01-16T06:48:52.815Z,4.46
2019-01-16T06:51:40.762Z,4.62
2019-01-16T06:54:28.754Z,4.72
2019-01-16T06:57:08.207Z,4.50
2019-01-16T06:59:53.731Z,4.74
2019-01-16T07:02:41.795Z,4.72
2019-01-16T07:05:39.050Z,4.59
2019-01-16T07:08:27.178Z,4.46
2019-01-16T07:11:22.180Z,4.39
2019-01-16T07:14:08.686Z,4.43
2019-01-16T07:17:02.594Z,4.58
2019-01-16T07:19:50.127Z,4.35
2019-01-16T07:22:50.262Z,4.37
2019-01-16T07:25:44.341Z,3.59
2019-01-16T07:28:44.516Z,4.29
2019-01-16T07:31:41.553Z,4.38
2019-01-16T07:34:22.174Z,4.48
2019-01-16T07:37:08.157Z,4.37
2019-01-16T07:40:02.164Z,4.46
2019-01-16T07:42:54.383Z,4.31
2019-01-16T07:45:43.998Z,4.53
2019-01-16T07:48:27.488Z,4.40
2019-01-16T07:51:27.866Z,4.48
2019-01-16T07:54:14.659Z,4.48
2019-01-16T07:57:02.699Z,4.39
2019-01-16T08:00:03.822Z,4.61
2019-01-16T08:03:00.782Z,4.53
2019-01-16T08:05:47.784Z,4.58
2019-01-16T08:08:47.898Z,4.55
2019-01-16T08:11:40.948Z,4.71
2019-01-16T08:14:28.851Z,4.66
2019-01-16T08:17:26.156Z,4.81
2019-01-16T08:20:12.813Z,4.86
2019-01-16T08:23:15.266Z,4.70
2019-01-16T08:26:24.109Z,4.59
2019-01-16T08:29:18.650Z,4.55
2019-01-16T08:31:53.721Z,4.78
2019-01-16T08:34:40.519Z,4.89
2019-01-16T08:37:28.531Z,4.92
2019-01-16T08:40:34.304Z,5.07
2019-01-16T08:43:18.042Z,4.88
2019-01-16T08:46:08.911Z,4.77
2019-01-16T08:48:59.653Z,4.59
2019-01-16T08:51:40.792Z,4.78
2019-01-16T08:54:27.241Z,5.05
2019-01-16T08:57:14.126Z,5.17
2019-01-16T09:00:05.746Z,5.01
2019-01-16T09:02:55.828Z,5.36
2019-01-16T09:05:59.070Z,5.25
2019-01-16T09:09:05.264Z,4.89
2019-01-16T09:11:57.143Z,5.16
2019-01-16T09:14:46.871Z,4.90
2019-01-16T09:17:37.963Z,5.17
2019-01-16T09:20:21.151Z,5.31
2019-01-16T09:23:10.183Z,5.10
2019-01-16T09:25:56.872Z,5.23
2019-01-16T09:28:50.411Z,5.26
2019-01-16T09:31:41.531Z,5.45
2019-01-16T09:34:32.596Z,5.37
2019-01-16T09:37:23.636Z,5.51
2019-01-16T09:40:17.287Z,5.31
2019-01-16T09:43:20.486Z,5.61
2019-01-16T09:46:07.356Z,5.83
2019-01-16T09:49:06.801Z,5.56
2019-01-16T09:51:53.576Z,5.75
2019-01-16T09:54:43.613Z,5.70
2019-01-16T09:57:37.781Z,5.64
2019-01-16T10:00:39.572Z,5.88
2019-01-16T10:03:38.360Z,5.71
2019-01-16T10:06:25.046Z,5.91
2019-01-16T10:09:11.604Z,6.09
2019-01-16T10:12:12.477Z,6.33
2019-01-16T10:15:03.521Z,6.23
2019-01-16T10:17:42.164Z,6.77
2019-01-16T10:20:33.422Z,6.49
2019-01-16T10:26:18.493Z,6.09
2019-01-16T10:29:06.770Z,5.73
2019-01-16T10:32:04.031Z,6.24
2019-01-16T10:34:47.559Z,6.43
2019-01-16T10:37:43.256Z,6.79
2019-01-16T10:40:43.588Z,6.68
2019-01-16T10:43:42.231Z,6.77
2019-01-16T10:46:39.616Z,6.72
2019-01-16T10:49:45.719Z,6.51
2019-01-16T10:52:26.149Z,6.90
2019-01-16T10:55:17.732Z,6.87
2019-01-16T10:58:08.815Z,6.97
2019-01-16T11:00:55.767Z,6.65
2019-01-16T11:03:42.530Z,6.49
2019-01-16T11:06:32.643Z,6.12
2019-01-16T11:09:19.374Z,6.42
2019-01-16T11:12:07.413Z,6.61
2019-01-16T11:15:03.925Z,7.00
2019-01-16T11:17:50.991Z,7.06
2019-01-16T11:20:41.848Z,7.13
2019-01-16T11:23:42.453Z,7.30
2019-01-16T11:26:30.492Z,7.47
2019-01-16T11:29:18.531Z,7.08
2019-01-16T11:32:06.540Z,7.42
2019-01-16T11:34:54.633Z,7.74
2019-01-16T11:37:38.279Z,6.99
2019-01-16T11:40:26.707Z,6.94
2019-01-16T11:43:23.863Z,6.93
2019-01-16T11:46:20.947Z,6.98
2019-01-16T11:49:16.385Z,7.10
2019-01-16T11:52:03.408Z,7.22
2019-01-16T11:54:54.209Z,7.57
2019-01-16T11:57:54.486Z,7.60
2019-01-16T12:00:44.195Z,7.67
2019-01-16T12:03:38.052Z,7.42
2019-01-16T12:06:20.774Z,7.84
2019-01-16T12:09:11.577Z,7.44
2019-01-16T12:11:48.173Z,7.81
2019-01-16T12:14:33.732Z,7.95
2019-01-16T12:17:32.745Z,8.11
2019-01-16T12:20:19.456Z,8.13
2019-01-16T12:23:12.655Z,8.23
2019-01-16T12:25:54.137Z,8.08
2019-01-16T12:28:40.940Z,8.11
2019-01-16T12:31:30.139Z,8.18
2019-01-16T12:34:12.413Z,8.09
2019-01-16T12:37:03.433Z,8.12
2019-01-16T12:39:50.767Z,7.74
2019-01-16T12:42:45.778Z,7.94
2019-01-16T12:45:35.746Z,8.01
2019-01-16T12:48:12.759Z,7.60
2019-01-16T12:51:07.060Z,7.37
2019-01-16T12:53:50.254Z,7.72
2019-01-16T12:56:34.829Z,7.70
2019-01-16T12:59:02.950Z,7.30
2019-01-16T13:01:45.216Z,7.58
2019-01-16T13:04:33.099Z,7.47
2019-01-16T13:07:36.160Z,7.69
2019-01-16T13:10:40.109Z,7.61
2019-01-16T13:13:27.750Z,7.42
2019-01-16T13:16:14.697Z,7.54
2019-01-16T13:18:55.952Z,7.25
2019-01-16T13:21:42.534Z,6.85
2019-01-16T13:24:30.432Z,6.89
2019-01-16T13:27:21.478Z,7.09
2019-01-16T13:30:08.279Z,7.17
2019-01-16T13:32:58.657Z,7.03
2019-01-16T13:35:41.073Z,7.32
2019-01-16T13:38:20.732Z,7.34
2019-01-16T13:41:09.332Z,7.42
2019-01-16T13:43:54.897Z,7.21
2019-01-16T13:46:52.562Z,7.12
2019-01-16T13:49:43.396Z,7.22
2019-01-16T13:52:43.104Z,7.29
2019-01-16T13:55:45.509Z,7.36
2019-01-16T13:58:36.333Z,6.84
2019-01-16T14:01:27.247Z,6.75
2019-01-16T14:04:11.143Z,6.84
2019-01-16T14:07:01.878Z,6.94
2019-01-16T14:10:02.301Z,6.66
2019-01-16T14:12:48.998Z,6.65
2019-01-16T14:15:42.951Z,6.63
2019-01-16T14:18:22.348Z,6.55
2019-01-16T14:21:05.181Z,6.69
2019-01-16T14:23:52.063Z,6.66
2019-01-16T14:26:39.035Z,6.58
2019-01-16T14:29:24.351Z,6.65
2019-01-16T14:32:12.361Z,6.71
2019-01-16T14:35:03.164Z,6.77
2019-01-16T14:37:50.811Z,6.79
2019-01-16T14:40:35.141Z,6.79
2019-01-16T14:43:22.148Z,6.73
2019-01-16T14:46:14.526Z,6.49
2019-01-16T14:48:56.374Z,6.45
2019-01-16T14:51:32.952Z,6.45
2019-01-16T14:54:19.835Z,6.35
2019-01-16T14:57:13.801Z,6.18
2019-01-16T15:00:13.785Z,6.11
2019-01-16T15:03:00.445Z,6.22
2019-01-16T15:05:55.369Z,6.26
2019-01-16T15:08:48.562Z,5.99
2019-01-16T15:11:36.645Z,5.97
2019-01-16T15:14:23.403Z,6.02
2019-01-16T15:17:32.081Z,5.85
2019-01-16T15:20:18.764Z,5.57
2019-01-16T15:23:05.758Z,6.23
2019-01-16T15:25:49.879Z,5.83
2019-01-16T15:28:36.611Z,5.51
2019-01-16T15:31:29.315Z,5.65
2019-01-16T15:34:16.205Z,5.38
2019-01-16T15:37:02.973Z,5.45
2019-01-16T15:39:53.751Z,5.43
2019-01-16T15:42:41.706Z,5.42
2019-01-16T15:45:25.280Z,5.32
2019-01-16T15:48:14.664Z,5.20
2019-01-16T15:51:05.503Z,5.21
2019-01-16T15:53:46.572Z,5.23
2019-01-16T15:56:50.025Z,5.10
2019-01-16T15:59:39.326Z,5.14
2019-01-16T16:02:23.339Z,4.99
2019-01-16T16:05:10.047Z,4.90
2019-01-16T16:08:00.107Z,4.89
2019-01-16T16:11:03.242Z,4.81
2019-01-16T16:13:51.108Z,4.73
2019-01-16T16:16:45.010Z,4.65
2019-01-16T16:19:31.934Z,4.59
2019-01-16T16:22:25.607Z,4.55
2019-01-16T16:25:08.329Z,4.46
2019-01-16T16:27:53.444Z,4.47
2019-01-16T16:30:43.842Z,4.52
2019-01-16T16:33:34.748Z,4.43
2019-01-16T16:36:33.122Z,4.40
2019-01-16T16:39:30.027Z,4.39
2019-01-16T16:42:17.208Z,4.34
2019-01-16T16:45:04.902Z,4.31
2019-01-16T16:47:52.061Z,4.23
2019-01-16T16:50:58.520Z,4.19
2019-01-16T16:53:45.345Z,4.19
2019-01-16T16:56:37.630Z,4.11
2019-01-16T16:59:38.169Z,4.13
2019-01-16T17:02:22.487Z,4.13
2019-01-16T17:05:13.635Z,3.95
2019-01-16T17:08:16.762Z,3.82
2019-01-16T17:11:17.158Z,4.14
2019-01-16T17:14:08.018Z,4.52
2019-01-16T17:16:58.532Z,4.24
2019-01-16T17:19:58.794Z,3.60
2019-01-16T17:22:55.850Z,3.86
2019-01-16T17:25:42.718Z,3.87
2019-01-16T17:28:29.762Z,3.85
2019-01-16T17:31:16.966Z,3.69
2019-01-16T17:34:17.443Z,3.59
2019-01-16T17:37:08.577Z,3.52
2019-01-16T17:40:14.706Z,3.61
2019-01-16T17:43:02.781Z,3.58
2019-01-16T17:45:53.276Z,3.61
2019-01-16T17:48:33.000Z,3.57
2019-01-16T17:51:26.810Z,3.57
2019-01-16T17:54:17.953Z,3.61
2019-01-16T17:57:04.648Z,3.48
2019-01-16T17:59:51.543Z,3.51
2019-01-16T18:02:38.204Z,3.70
2019-01-16T18:05:29.044Z,3.57
2019-01-16T18:08:19.937Z,3.42
2019-01-16T18:11:00.359Z,3.40
2019-01-16T18:14:03.594Z,3.40
2019-01-16T18:16:54.569Z,3.65
2019-01-16T18:19:45.724Z,3.55
2019-01-16T18:22:37.758Z,3.50
2019-01-16T18:25:33.635Z,3.62
2019-01-16T18:28:20.469Z,3.55
2019-01-16T18:31:08.242Z,3.59
2019-01-16T18:34:14.348Z,3.73
2019-01-16T18:37:00.975Z,3.58
2019-01-16T18:39:51.589Z,3.52
2019-01-16T18:42:38.181Z,3.58
2019-01-16T18:45:29.495Z,3.59
2019-01-16T18:48:26.971Z,3.66
2019-01-16T18:51:14.832Z,3.90
2019-01-16T18:54:06.971Z,3.62
2019-01-16T18:56:51.257Z,3.78
2019-01-16T18:59:52.920Z,3.91
2019-01-16T19:02:41.470Z,3.81
2019-01-16T19:05:30.998Z,3.82
2019-01-16T19:08:22.090Z,3.77
2019-01-16T19:11:28.274Z,3.78
2019-01-16T19:14:19.481Z,3.81
2019-01-16T19:17:10.479Z,3.68
2019-01-16T19:19:57.297Z,3.65
2019-01-16T19:22:44.070Z,3.71
2019-01-16T19:25:32.228Z,3.55
2019-01-16T19:28:20.565Z,3.72
2019-01-16T19:31:07.951Z,3.74
2019-01-16T19:34:03.328Z,3.71
2019-01-16T19:36:56.378Z,3.67
2019-01-16T19:39:40.518Z,2.82
2019-01-16T19:42:21.867Z,3.65
2019-01-16T19:45:13.331Z,3.59
2019-01-16T19:47:55.295Z,3.58
2019-01-16T19:50:42.044Z,3.64
2019-01-16T19:53:20.249Z,3.68
2019-01-16T19:56:10.476Z,3.67
2019-01-16T19:58:51.008Z,3.73
2019-01-16T20:01:38.367Z,3.66
2019-01-16T20:04:28.860Z,3.67
2019-01-16T20:07:24.693Z,3.67
2019-01-16T20:10:11.527Z,3.68
2019-01-16T20:13:00.128Z,3.85
2019-01-16T20:15:47.008Z,3.80
2019-01-16T20:18:35.354Z,3.93
2019-01-16T20:21:39.005Z,3.88
2019-01-16T20:24:18.199Z,3.95
2019-01-16T20:27:10.485Z,4.07
2019-01-16T20:30:01.417Z,3.99
2019-01-16T20:32:51.784Z,4.04
2019-01-16T20:35:43.794Z,4.08
2019-01-16T20:38:36.617Z,4.02
2019-01-16T20:41:26.071Z,4.24
2019-01-16T20:44:11.076Z,4.29
2019-01-16T20:47:01.245Z,4.46
2019-01-16T20:49:48.506Z,4.59
2019-01-16T20:52:37.057Z,4.70
2019-01-16T20:55:28.281Z,4.75
2019-01-16T20:58:14.789Z,4.81
2019-01-16T21:01:08.734Z,5.03
2019-01-16T21:03:57.886Z,5.04
2019-01-16T21:06:41.520Z,5.04
2019-01-16T21:09:28.087Z,5.18
2019-01-16T21:12:25.456Z,5.04
2019-01-16T21:15:13.459Z,5.16
2019-01-16T21:18:09.721Z,5.14
2019-01-16T21:21:06.535Z,5.13
2019-01-16T21:24:06.886Z,5.18
2019-01-16T21:26:58.754Z,5.29
2019-01-16T21:29:42.878Z,5.29
2019-01-16T21:32:29.814Z,5.29
2019-01-16T21:35:17.923Z,5.31
2019-01-16T21:37:57.207Z,5.38
2019-01-16T21:40:48.032Z,5.19
2019-01-16T21:43:34.849Z,5.42
2019-01-16T21:46:42.189Z,5.13
2019-01-16T21:49:20.492Z,5.03
2019-01-16T21:52:01.008Z,5.10
2019-01-16T21:54:52.794Z,5.14
2019-01-16T21:57:39.722Z,5.09
2019-01-16T22:00:30.012Z,5.04
2019-01-16T22:03:33.327Z,5.30
2019-01-16T22:06:22.600Z,5.28
2019-01-16T22:09:22.615Z,5.13
2019-01-16T22:12:23.940Z,5.22
2019-01-16T22:15:14.671Z,5.18
2019-01-16T22:17:58.542Z,5.32
2019-01-16T22:20:40.736Z,5.20
2019-01-16T22:23:19.863Z,5.18
2019-01-16T22:26:10.936Z,5.25
2019-01-16T22:29:02.125Z,5.23
2019-01-16T22:31:53.140Z,5.33
2019-01-16T22:34:59.679Z,5.19
2019-01-16T22:37:46.234Z,5.07
2019-01-16T22:40:37.497Z,5.05
2019-01-16T22:43:25.552Z,5.23
2019-01-16T22:46:13.504Z,5.04
2019-01-16T22:49:13.737Z,5.02
2019-01-16T22:52:16.024Z,5.06
2019-01-16T22:55:03.974Z,4.97
2019-01-16T22:58:04.084Z,4.95
2019-01-16T23:00:55.698Z,5.09
2019-01-16T23:03:42.142Z,5.17
2019-01-16T23:06:32.899Z,5.21
2019-01-16T23:09:10.661Z,5.17
2019-01-16T23:11:51.525Z,5.26
2019-01-16T23:14:31.620Z,5.11
2019-01-16T23:17:22.791Z,5.07
2019-01-16T23:20:09.703Z,5.17
2019-01-16T23:23:02.497Z,5.17
2019-01-16T23:25:49.384Z,5.16
2019-01-16T23:28:46.634Z,5.13
2019-01-16T23:31:32.994Z,5.16
2019-01-16T23:34:24.255Z,5.00
2019-01-16T23:37:12.397Z,4.91
2019-01-16T23:39:59.242Z,4.92
2019-01-16T23:42:45.034Z,5.06
2019-01-16T23:45:31.723Z,5.09
2019-01-16T23:48:18.581Z,5.16
2019-01-16T23:51:15.680Z,5.08
2019-01-16T23:54:01.994Z,5.03
2019-01-16T23:56:45.045Z,4.98
2019-01-16T23:59:45.634Z,4.97
